sensor_id;sensor_type;location;lat;lon;timestamp;temperature;humidity
7572;DHT22;3827;49.928;8.548;2022-11-04T00:01:19;10.50;99.90
7572;DHT22;3827;49.928;8.548;2022-11-04T00:03:48;10.50;99.90
7572;DHT22;3827;49.928;8.548;2022-11-04T00:06:14;10.50;99.90
7572;DHT22;3827;49.928;8.548;2022-11-04T00:08:41;10.50;99.90
7572;DHT22;3827;49.928;8.548;2022-11-04T00:11:08;10.60;99.90
7572;DHT22;3827;49.928;8.548;2022-11-04T00:13:54;10.60;99.90
7572;DHT22;3827;49.928;8.548;2022-11-04T00:16:20;10.60;99.90
7572;DHT22;3827;49.928;8.548;2022-11-04T00:19:06;10.60;99.90
7572;DHT22;3827;49.928;8.548;2022-11-04T00:21:33;10.60;99.90
7572;DHT22;3827;49.928;8.548;2022-11-04T00:24:17;10.60;99.90
7572;DHT22;3827;49.928;8.548;2022-11-04T00:27:10;10.70;99.90
7572;DHT22;3827;49.928;8.548;2022-11-04T00:29:55;10.70;99.90
7572;DHT22;3827;49.928;8.548;2022-11-04T00:32:22;10.70;99.90
7572;DHT22;3827;49.928;8.548;2022-11-04T00:35:09;10.70;99.90
7572;DHT22;3827;49.928;8.548;2022-11-04T00:37:37;10.60;99.90
7572;DHT22;3827;49.928;8.548;2022-11-04T00:40:07;10.70;99.90
7572;DHT22;3827;49.928;8.548;2022-11-04T00:42:34;10.60;99.90
7572;DHT22;3827;49.928;8.548;2022-11-04T00:45:01;10.60;99.90
7572;DHT22;3827;49.928;8.548;2022-11-04T00:47:28;10.60;99.90
7572;DHT22;3827;49.928;8.548;2022-11-04T00:49:55;10.60;99.90
7572;DHT22;3827;49.928;8.548;2022-11-04T00:52:23;10.70;99.90
7572;DHT22;3827;49.928;8.548;2022-11-04T00:54:50;10.60;99.90
7572;DHT22;3827;49.928;8.548;2022-11-04T00:57:17;10.60;99.90
7572;DHT22;3827;49.928;8.548;2022-11-04T00:59:44;10.60;99.90
7572;DHT22;3827;49.928;8.548;2022-11-04T01:02:11;10.70;99.90
7572;DHT22;3827;49.928;8.548;2022-11-04T01:04:38;10.70;99.90
7572;DHT22;3827;49.928;8.548;2022-11-04T01:07:05;10.80;99.90
7572;DHT22;3827;49.928;8.548;2022-11-04T01:09:33;10.70;99.90
7572;DHT22;3827;49.928;8.548;2022-11-04T01:12:00;10.70;99.90
7572;DHT22;3827;49.928;8.548;2022-11-04T01:14:27;10.70;99.90
7572;DHT22;3827;49.928;8.548;2022-11-04T01:16:54;10.80;99.90
7572;DHT22;3827;49.928;8.548;2022-11-04T01:19:21;10.70;99.90
7572;DHT22;3827;49.928;8.548;2022-11-04T01:21:50;11.30;99.90
7572;DHT22;3827;49.928;8.548;2022-11-04T01:24:17;10.80;99.90
7572;DHT22;3827;49.928;8.548;2022-11-04T01:26:45;10.80;99.90
7572;DHT22;3827;49.928;8.548;2022-11-04T01:29:12;10.70;99.90
7572;DHT22;3827;49.928;8.548;2022-11-04T01:31:39;10.70;99.90
7572;DHT22;3827;49.928;8.548;2022-11-04T01:34:06;11.10;99.90
7572;DHT22;3827;49.928;8.548;2022-11-04T01:36:34;10.70;99.90
7572;DHT22;3827;49.928;8.548;2022-11-04T01:39:01;10.70;99.90
7572;DHT22;3827;49.928;8.548;2022-11-04T01:41:30;10.70;99.90
7572;DHT22;3827;49.928;8.548;2022-11-04T01:43:59;10.70;99.90
7572;DHT22;3827;49.928;8.548;2022-11-04T01:46:34;10.70;99.90
7572;DHT22;3827;49.928;8.548;2022-11-04T01:49:10;10.70;99.90
7572;DHT22;3827;49.928;8.548;2022-11-04T01:51:44;10.60;99.90
7572;DHT22;3827;49.928;8.548;2022-11-04T01:54:13;10.70;99.90
7572;DHT22;3827;49.928;8.548;2022-11-04T01:56:41;10.70;99.90
7572;DHT22;3827;49.928;8.548;2022-11-04T01:59:14;10.70;99.90
7572;DHT22;3827;49.928;8.548;2022-11-04T02:01:43;10.70;99.90
7572;DHT22;3827;49.928;8.548;2022-11-04T02:04:10;11.30;99.90
7572;DHT22;3827;49.928;8.548;2022-11-04T02:06:53;10.60;99.90
7572;DHT22;3827;49.928;8.548;2022-11-04T02:09:22;10.60;99.90
7572;DHT22;3827;49.928;8.548;2022-11-04T02:11:49;10.60;99.90
7572;DHT22;3827;49.928;8.548;2022-11-04T02:14:35;10.60;99.90
7572;DHT22;3827;49.928;8.548;2022-11-04T02:17:11;10.60;99.90
7572;DHT22;3827;49.928;8.548;2022-11-04T02:19:58;10.50;99.90
7572;DHT22;3827;49.928;8.548;2022-11-04T02:22:49;10.40;99.90
7572;DHT22;3827;49.928;8.548;2022-11-04T02:25:32;10.40;99.90
7572;DHT22;3827;49.928;8.548;2022-11-04T02:28:23;10.30;99.90
7572;DHT22;3827;49.928;8.548;2022-11-04T02:30:57;10.20;99.90
7572;DHT22;3827;49.928;8.548;2022-11-04T02:33:31;10.30;99.90
7572;DHT22;3827;49.928;8.548;2022-11-04T02:36:06;10.00;99.90
7572;DHT22;3827;49.928;8.548;2022-11-04T02:38:40;10.00;99.90
7572;DHT22;3827;49.928;8.548;2022-11-04T02:41:15;10.00;99.90
7572;DHT22;3827;49.928;8.548;2022-11-04T02:43:51;10.00;99.90
7572;DHT22;3827;49.928;8.548;2022-11-04T02:46:27;9.90;99.90
7572;DHT22;3827;49.928;8.548;2022-11-04T02:49:01;9.90;99.90
7572;DHT22;3827;49.928;8.548;2022-11-04T02:51:31;10.00;99.90
7572;DHT22;3827;49.928;8.548;2022-11-04T02:54:04;9.80;99.90
7572;DHT22;3827;49.928;8.548;2022-11-04T02:56:36;9.80;99.90
7572;DHT22;3827;49.928;8.548;2022-11-04T02:59:06;9.70;99.90
7572;DHT22;3827;49.928;8.548;2022-11-04T03:01:39;9.60;99.90
7572;DHT22;3827;49.928;8.548;2022-11-04T03:04:10;9.60;99.90
7572;DHT22;3827;49.928;8.548;2022-11-04T03:06:40;9.50;99.90
7572;DHT22;3827;49.928;8.548;2022-11-04T03:09:10;9.50;99.90
7572;DHT22;3827;49.928;8.548;2022-11-04T03:11:41;9.50;99.90
7572;DHT22;3827;49.928;8.548;2022-11-04T03:14:13;9.40;99.90
7572;DHT22;3827;49.928;8.548;2022-11-04T03:16:46;9.40;99.90
7572;DHT22;3827;49.928;8.548;2022-11-04T03:19:18;9.40;99.90
7572;DHT22;3827;49.928;8.548;2022-11-04T03:21:53;9.40;99.90
7572;DHT22;3827;49.928;8.548;2022-11-04T03:24:21;9.30;99.90
7572;DHT22;3827;49.928;8.548;2022-11-04T03:26:51;9.30;99.90
7572;DHT22;3827;49.928;8.548;2022-11-04T03:29:25;9.40;99.90
7572;DHT22;3827;49.928;8.548;2022-11-04T03:32:00;9.40;99.90
7572;DHT22;3827;49.928;8.548;2022-11-04T03:34:29;9.30;99.90
7572;DHT22;3827;49.928;8.548;2022-11-04T03:36:57;9.40;99.90
7572;DHT22;3827;49.928;8.548;2022-11-04T03:39:24;9.40;99.90
7572;DHT22;3827;49.928;8.548;2022-11-04T03:41:54;9.50;99.90
7572;DHT22;3827;49.928;8.548;2022-11-04T03:44:22;9.50;99.90
7572;DHT22;3827;49.928;8.548;2022-11-04T03:46:50;9.50;99.90
7572;DHT22;3827;49.928;8.548;2022-11-04T03:49:19;9.50;99.90
7572;DHT22;3827;49.928;8.548;2022-11-04T03:51:47;9.40;99.90
7572;DHT22;3827;49.928;8.548;2022-11-04T03:54:13;9.40;99.90
7572;DHT22;3827;49.928;8.548;2022-11-04T03:57:12;9.40;99.90
7572;DHT22;3827;49.928;8.548;2022-11-04T04:00:05;9.30;99.90
7572;DHT22;3827;49.928;8.548;2022-11-04T04:02:40;9.20;99.90
7572;DHT22;3827;49.928;8.548;2022-11-04T04:05:19;9.20;99.90
7572;DHT22;3827;49.928;8.548;2022-11-04T04:07:50;9.00;99.90
7572;DHT22;3827;49.928;8.548;2022-11-04T04:10:25;9.00;99.90
7572;DHT22;3827;49.928;8.548;2022-11-04T04:13:17;9.00;99.90
7572;DHT22;3827;49.928;8.548;2022-11-04T04:15:51;9.00;99.90
7572;DHT22;3827;49.928;8.548;2022-11-04T04:18:23;9.00;99.90
7572;DHT22;3827;49.928;8.548;2022-11-04T04:20:55;9.00;99.90
7572;DHT22;3827;49.928;8.548;2022-11-04T04:23:26;9.00;99.90
7572;DHT22;3827;49.928;8.548;2022-11-04T04:26:14;9.00;99.90
7572;DHT22;3827;49.928;8.548;2022-11-04T04:28:59;8.80;99.90
7572;DHT22;3827;49.928;8.548;2022-11-04T04:31:30;8.80;99.90
7572;DHT22;3827;49.928;8.548;2022-11-04T04:34:23;8.70;99.90
7572;DHT22;3827;49.928;8.548;2022-11-04T04:36:57;8.70;99.90
7572;DHT22;3827;49.928;8.548;2022-11-04T04:39:32;8.90;99.90
7572;DHT22;3827;49.928;8.548;2022-11-04T04:42:18;9.10;99.90
7572;DHT22;3827;49.928;8.548;2022-11-04T04:45:04;8.60;99.90
7572;DHT22;3827;49.928;8.548;2022-11-04T04:47:41;8.60;99.90
7572;DHT22;3827;49.928;8.548;2022-11-04T04:50:10;8.60;99.90
7572;DHT22;3827;49.928;8.548;2022-11-04T04:52:42;8.50;99.90
7572;DHT22;3827;49.928;8.548;2022-11-04T04:55:10;8.50;99.90
7572;DHT22;3827;49.928;8.548;2022-11-04T04:57:37;8.50;99.90
7572;DHT22;3827;49.928;8.548;2022-11-04T05:00:06;8.60;99.90
7572;DHT22;3827;49.928;8.548;2022-11-04T05:02:33;8.60;99.90
7572;DHT22;3827;49.928;8.548;2022-11-04T05:05:00;8.60;99.90
7572;DHT22;3827;49.928;8.548;2022-11-04T05:07:27;8.60;99.90
7572;DHT22;3827;49.928;8.548;2022-11-04T05:09:56;8.60;99.90
7572;DHT22;3827;49.928;8.548;2022-11-04T05:12:23;8.70;99.90
7572;DHT22;3827;49.928;8.548;2022-11-04T05:14:50;8.60;99.90
7572;DHT22;3827;49.928;8.548;2022-11-04T05:17:17;8.60;99.90
7572;DHT22;3827;49.928;8.548;2022-11-04T05:19:43;8.60;99.90
7572;DHT22;3827;49.928;8.548;2022-11-04T05:22:10;8.60;99.90
7572;DHT22;3827;49.928;8.548;2022-11-04T05:24:37;8.60;99.90
7572;DHT22;3827;49.928;8.548;2022-11-04T05:27:05;8.60;99.90
7572;DHT22;3827;49.928;8.548;2022-11-04T05:29:32;8.50;99.90
7572;DHT22;3827;49.928;8.548;2022-11-04T05:31:59;8.60;99.90
7572;DHT22;3827;49.928;8.548;2022-11-04T05:34:25;8.60;99.90
7572;DHT22;3827;49.928;8.548;2022-11-04T05:36:52;8.60;99.90
7572;DHT22;3827;49.928;8.548;2022-11-04T05:39:19;8.50;99.90
7572;DHT22;3827;49.928;8.548;2022-11-04T05:41:46;8.60;99.90
7572;DHT22;3827;49.928;8.548;2022-11-04T05:44:14;8.50;99.90
7572;DHT22;3827;49.928;8.548;2022-11-04T05:46:41;8.50;99.90
7572;DHT22;3827;49.928;8.548;2022-11-04T05:49:08;9.50;99.90
7572;DHT22;3827;49.928;8.548;2022-11-04T05:51:36;8.70;99.90
7572;DHT22;3827;49.928;8.548;2022-11-04T05:54:03;8.40;99.90
7572;DHT22;3827;49.928;8.548;2022-11-04T05:56:30;8.40;99.90
7572;DHT22;3827;49.928;8.548;2022-11-04T05:58:56;8.30;99.90
7572;DHT22;3827;49.928;8.548;2022-11-04T06:01:28;8.30;99.90
7572;DHT22;3827;49.928;8.548;2022-11-04T06:03:56;8.50;99.90
7572;DHT22;3827;49.928;8.548;2022-11-04T06:06:25;8.40;99.90
7572;DHT22;3827;49.928;8.548;2022-11-04T06:08:52;8.40;99.90
7572;DHT22;3827;49.928;8.548;2022-11-04T06:11:19;8.50;99.90
7572;DHT22;3827;49.928;8.548;2022-11-04T06:13:46;8.50;99.90
7572;DHT22;3827;49.928;8.548;2022-11-04T06:16:13;8.60;99.90
7572;DHT22;3827;49.928;8.548;2022-11-04T06:18:41;8.60;99.90
7572;DHT22;3827;49.928;8.548;2022-11-04T06:21:20;8.60;99.90
7572;DHT22;3827;49.928;8.548;2022-11-04T06:23:50;8.70;99.90
7572;DHT22;3827;49.928;8.548;2022-11-04T06:26:17;9.00;99.90
7572;DHT22;3827;49.928;8.548;2022-11-04T06:28:43;9.10;99.90
7572;DHT22;3827;49.928;8.548;2022-11-04T06:31:13;8.70;99.90
7572;DHT22;3827;49.928;8.548;2022-11-04T06:33:42;8.70;99.90
7572;DHT22;3827;49.928;8.548;2022-11-04T06:36:12;8.70;99.90
7572;DHT22;3827;49.928;8.548;2022-11-04T06:38:39;8.80;99.90
7572;DHT22;3827;49.928;8.548;2022-11-04T06:41:09;8.80;99.90
7572;DHT22;3827;49.928;8.548;2022-11-04T06:43:36;8.80;99.90
7572;DHT22;3827;49.928;8.548;2022-11-04T06:46:03;8.80;99.90
7572;DHT22;3827;49.928;8.548;2022-11-04T06:48:30;8.90;99.90
7572;DHT22;3827;49.928;8.548;2022-11-04T06:50:59;8.90;99.90
7572;DHT22;3827;49.928;8.548;2022-11-04T06:53:26;9.00;99.90
7572;DHT22;3827;49.928;8.548;2022-11-04T06:56:01;9.00;99.90
7572;DHT22;3827;49.928;8.548;2022-11-04T06:58:28;9.10;99.90
7572;DHT22;3827;49.928;8.548;2022-11-04T07:00:55;9.10;99.90
7572;DHT22;3827;49.928;8.548;2022-11-04T07:03:22;9.20;99.90
7572;DHT22;3827;49.928;8.548;2022-11-04T07:05:48;9.20;99.90
7572;DHT22;3827;49.928;8.548;2022-11-04T07:08:17;9.20;99.90
7572;DHT22;3827;49.928;8.548;2022-11-04T07:10:44;9.30;99.90
7572;DHT22;3827;49.928;8.548;2022-11-04T07:13:11;9.30;99.90
7572;DHT22;3827;49.928;8.548;2022-11-04T07:15:38;9.30;99.90
7572;DHT22;3827;49.928;8.548;2022-11-04T07:18:05;9.40;99.90
7572;DHT22;3827;49.928;8.548;2022-11-04T07:20:32;9.40;99.90
7572;DHT22;3827;49.928;8.548;2022-11-04T07:22:59;9.50;99.90
7572;DHT22;3827;49.928;8.548;2022-11-04T07:25:27;9.50;99.90
7572;DHT22;3827;49.928;8.548;2022-11-04T07:27:54;9.50;99.90
7572;DHT22;3827;49.928;8.548;2022-11-04T07:30:21;9.60;99.90
7572;DHT22;3827;49.928;8.548;2022-11-04T07:32:47;9.60;99.90
7572;DHT22;3827;49.928;8.548;2022-11-04T07:35:14;9.70;99.90
7572;DHT22;3827;49.928;8.548;2022-11-04T07:37:41;9.70;99.90
7572;DHT22;3827;49.928;8.548;2022-11-04T07:40:09;9.70;99.90
7572;DHT22;3827;49.928;8.548;2022-11-04T07:42:37;9.80;99.90
7572;DHT22;3827;49.928;8.548;2022-11-04T07:45:05;9.90;99.90
7572;DHT22;3827;49.928;8.548;2022-11-04T07:47:32;9.90;99.90
7572;DHT22;3827;49.928;8.548;2022-11-04T07:49:59;9.90;99.90
7572;DHT22;3827;49.928;8.548;2022-11-04T07:52:26;10.00;99.90
7572;DHT22;3827;49.928;8.548;2022-11-04T07:54:53;10.10;99.90
7572;DHT22;3827;49.928;8.548;2022-11-04T07:57:20;10.10;99.90
7572;DHT22;3827;49.928;8.548;2022-11-04T07:59:48;10.20;99.90
7572;DHT22;3827;49.928;8.548;2022-11-04T08:02:15;10.20;99.90
7572;DHT22;3827;49.928;8.548;2022-11-04T08:04:42;10.20;99.90
7572;DHT22;3827;49.928;8.548;2022-11-04T08:07:08;10.20;99.90
7572;DHT22;3827;49.928;8.548;2022-11-04T08:09:35;10.30;99.90
7572;DHT22;3827;49.928;8.548;2022-11-04T08:12:03;10.30;99.90
7572;DHT22;3827;49.928;8.548;2022-11-04T08:14:30;10.30;99.90
7572;DHT22;3827;49.928;8.548;2022-11-04T08:16:59;10.30;99.90
7572;DHT22;3827;49.928;8.548;2022-11-04T08:19:26;10.30;99.90
7572;DHT22;3827;49.928;8.548;2022-11-04T08:21:53;10.40;99.90
7572;DHT22;3827;49.928;8.548;2022-11-04T08:24:19;10.40;99.90
7572;DHT22;3827;49.928;8.548;2022-11-04T08:26:46;10.50;99.90
7572;DHT22;3827;49.928;8.548;2022-11-04T08:29:13;10.60;99.90
7572;DHT22;3827;49.928;8.548;2022-11-04T08:31:40;10.60;99.90
7572;DHT22;3827;49.928;8.548;2022-11-04T08:34:08;10.70;99.90
7572;DHT22;3827;49.928;8.548;2022-11-04T08:36:37;10.80;99.90
7572;DHT22;3827;49.928;8.548;2022-11-04T08:39:06;10.80;99.90
7572;DHT22;3827;49.928;8.548;2022-11-04T08:41:34;10.80;99.90
7572;DHT22;3827;49.928;8.548;2022-11-04T08:44:02;11.00;99.90
7572;DHT22;3827;49.928;8.548;2022-11-04T08:46:31;10.90;99.90
7572;DHT22;3827;49.928;8.548;2022-11-04T08:48:59;11.10;99.90
7572;DHT22;3827;49.928;8.548;2022-11-04T08:51:28;11.10;99.90
7572;DHT22;3827;49.928;8.548;2022-11-04T08:53:56;11.20;99.90
7572;DHT22;3827;49.928;8.548;2022-11-04T08:56:26;11.20;99.90
7572;DHT22;3827;49.928;8.548;2022-11-04T08:58:53;11.30;99.90
7572;DHT22;3827;49.928;8.548;2022-11-04T09:01:20;11.30;99.90
7572;DHT22;3827;49.928;8.548;2022-11-04T09:03:48;11.40;99.90
7572;DHT22;3827;49.928;8.548;2022-11-04T09:06:18;11.50;99.90
7572;DHT22;3827;49.928;8.548;2022-11-04T09:08:47;11.40;99.90
7572;DHT22;3827;49.928;8.548;2022-11-04T09:11:15;11.50;99.90
7572;DHT22;3827;49.928;8.548;2022-11-04T09:13:43;11.50;99.90
7572;DHT22;3827;49.928;8.548;2022-11-04T09:16:11;11.50;99.90
7572;DHT22;3827;49.928;8.548;2022-11-04T09:18:39;11.50;99.90
7572;DHT22;3827;49.928;8.548;2022-11-04T09:21:07;11.50;99.90
7572;DHT22;3827;49.928;8.548;2022-11-04T09:23:34;11.60;99.90
7572;DHT22;3827;49.928;8.548;2022-11-04T09:26:07;11.60;99.90
7572;DHT22;3827;49.928;8.548;2022-11-04T09:28:35;11.70;99.90
7572;DHT22;3827;49.928;8.548;2022-11-04T09:31:06;11.80;99.90
7572;DHT22;3827;49.928;8.548;2022-11-04T09:33:33;11.90;99.90
7572;DHT22;3827;49.928;8.548;2022-11-04T09:36:00;12.00;99.90
7572;DHT22;3827;49.928;8.548;2022-11-04T09:38:27;12.00;99.90
7572;DHT22;3827;49.928;8.548;2022-11-04T09:40:54;12.10;99.90
7572;DHT22;3827;49.928;8.548;2022-11-04T09:43:33;12.10;99.90
7572;DHT22;3827;49.928;8.548;2022-11-04T09:46:03;12.30;99.90
7572;DHT22;3827;49.928;8.548;2022-11-04T09:48:34;12.30;99.90
7572;DHT22;3827;49.928;8.548;2022-11-04T09:51:05;12.40;99.90
7572;DHT22;3827;49.928;8.548;2022-11-04T09:53:37;12.50;99.90
7572;DHT22;3827;49.928;8.548;2022-11-04T09:56:11;12.60;99.90
7572;DHT22;3827;49.928;8.548;2022-11-04T09:58:40;12.70;99.90
7572;DHT22;3827;49.928;8.548;2022-11-04T10:01:18;12.80;99.90
7572;DHT22;3827;49.928;8.548;2022-11-04T10:04:07;12.80;99.90
7572;DHT22;3827;49.928;8.548;2022-11-04T10:06:43;13.00;99.90
7572;DHT22;3827;49.928;8.548;2022-11-04T10:09:29;13.10;99.90
7572;DHT22;3827;49.928;8.548;2022-11-04T10:12:11;13.00;99.90
7572;DHT22;3827;49.928;8.548;2022-11-04T10:15:03;13.10;99.90
7572;DHT22;3827;49.928;8.548;2022-11-04T10:17:44;13.30;99.90
7572;DHT22;3827;49.928;8.548;2022-11-04T10:20:24;13.40;99.90
7572;DHT22;3827;49.928;8.548;2022-11-04T10:22:57;13.50;99.90
7572;DHT22;3827;49.928;8.548;2022-11-04T10:25:29;13.60;99.90
7572;DHT22;3827;49.928;8.548;2022-11-04T10:27:58;13.80;99.90
7572;DHT22;3827;49.928;8.548;2022-11-04T10:30:26;14.00;99.90
7572;DHT22;3827;49.928;8.548;2022-11-04T10:33:03;14.30;99.90
7572;DHT22;3827;49.928;8.548;2022-11-04T10:35:36;14.40;99.90
7572;DHT22;3827;49.928;8.548;2022-11-04T10:38:15;14.50;99.90
7572;DHT22;3827;49.928;8.548;2022-11-04T10:40:48;14.30;99.90
7572;DHT22;3827;49.928;8.548;2022-11-04T10:43:19;14.20;99.90
7572;DHT22;3827;49.928;8.548;2022-11-04T10:45:57;14.20;99.90
7572;DHT22;3827;49.928;8.548;2022-11-04T10:48:31;14.20;99.90
7572;DHT22;3827;49.928;8.548;2022-11-04T10:51:01;14.30;99.90
7572;DHT22;3827;49.928;8.548;2022-11-04T10:53:30;14.20;99.90
7572;DHT22;3827;49.928;8.548;2022-11-04T10:56:02;14.10;99.90
7572;DHT22;3827;49.928;8.548;2022-11-04T10:58:31;14.00;99.90
7572;DHT22;3827;49.928;8.548;2022-11-04T11:01:22;14.10;99.90
7572;DHT22;3827;49.928;8.548;2022-11-04T11:03:49;13.80;99.90
7572;DHT22;3827;49.928;8.548;2022-11-04T11:06:23;13.70;99.90
7572;DHT22;3827;49.928;8.548;2022-11-04T11:08:51;13.60;99.90
7572;DHT22;3827;49.928;8.548;2022-11-04T11:11:34;13.60;99.90
7572;DHT22;3827;49.928;8.548;2022-11-04T11:14:01;13.70;99.90
7572;DHT22;3827;49.928;8.548;2022-11-04T11:16:29;15.10;99.90
7572;DHT22;3827;49.928;8.548;2022-11-04T11:19:14;14.00;99.90
7572;DHT22;3827;49.928;8.548;2022-11-04T11:21:42;14.10;99.90
7572;DHT22;3827;49.928;8.548;2022-11-04T11:24:14;14.10;99.90
7572;DHT22;3827;49.928;8.548;2022-11-04T11:26:42;14.00;99.90
7572;DHT22;3827;49.928;8.548;2022-11-04T11:29:21;14.10;99.90
7572;DHT22;3827;49.928;8.548;2022-11-04T11:31:51;14.10;99.90
7572;DHT22;3827;49.928;8.548;2022-11-04T11:34:21;14.10;99.90
7572;DHT22;3827;49.928;8.548;2022-11-04T11:36:52;14.10;99.90
7572;DHT22;3827;49.928;8.548;2022-11-04T11:39:22;14.00;99.90
7572;DHT22;3827;49.928;8.548;2022-11-04T11:41:55;14.00;99.90
7572;DHT22;3827;49.928;8.548;2022-11-04T11:44:27;13.90;99.90
7572;DHT22;3827;49.928;8.548;2022-11-04T11:46:59;13.80;99.90
7572;DHT22;3827;49.928;8.548;2022-11-04T11:49:29;13.90;99.90
7572;DHT22;3827;49.928;8.548;2022-11-04T11:52:16;14.10;99.90
7572;DHT22;3827;49.928;8.548;2022-11-04T11:54:52;14.40;99.90
7572;DHT22;3827;49.928;8.548;2022-11-04T11:57:32;14.60;99.90
7572;DHT22;3827;49.928;8.548;2022-11-04T12:00:03;14.50;99.90
7572;DHT22;3827;49.928;8.548;2022-11-04T12:02:42;14.30;99.90
7572;DHT22;3827;49.928;8.548;2022-11-04T12:05:12;14.20;99.90
7572;DHT22;3827;49.928;8.548;2022-11-04T12:07:45;14.40;99.90
7572;DHT22;3827;49.928;8.548;2022-11-04T12:10:24;14.40;99.90
7572;DHT22;3827;49.928;8.548;2022-11-04T12:13:02;14.40;99.90
7572;DHT22;3827;49.928;8.548;2022-11-04T12:15:40;14.30;99.90
7572;DHT22;3827;49.928;8.548;2022-11-04T12:21:13;13.90;99.90
7572;DHT22;3827;49.928;8.548;2022-11-04T12:23:49;13.60;99.90
7572;DHT22;3827;49.928;8.548;2022-11-04T12:26:29;13.10;99.90
7572;DHT22;3827;49.928;8.548;2022-11-04T12:29:19;13.00;99.90
7572;DHT22;3827;49.928;8.548;2022-11-04T12:31:58;13.20;99.90
7572;DHT22;3827;49.928;8.548;2022-11-04T12:34:38;13.10;99.90
7572;DHT22;3827;49.928;8.548;2022-11-04T12:37:19;13.20;99.90
7572;DHT22;3827;49.928;8.548;2022-11-04T12:40:07;13.50;99.90
7572;DHT22;3827;49.928;8.548;2022-11-04T12:42:46;13.40;99.90
7572;DHT22;3827;49.928;8.548;2022-11-04T12:45:24;13.40;99.90
7572;DHT22;3827;49.928;8.548;2022-11-04T12:48:00;13.20;99.90
7572;DHT22;3827;49.928;8.548;2022-11-04T12:50:41;12.90;99.90
7572;DHT22;3827;49.928;8.548;2022-11-04T12:53:24;12.80;99.90
7572;DHT22;3827;49.928;8.548;2022-11-04T12:56:01;12.80;99.90
7572;DHT22;3827;49.928;8.548;2022-11-04T12:58:39;13.00;99.90
7572;DHT22;3827;49.928;8.548;2022-11-04T13:01:10;13.10;99.90
7572;DHT22;3827;49.928;8.548;2022-11-04T13:03:45;13.50;99.90
7572;DHT22;3827;49.928;8.548;2022-11-04T13:06:16;13.80;99.90
7572;DHT22;3827;49.928;8.548;2022-11-04T13:08:49;14.10;99.90
7572;DHT22;3827;49.928;8.548;2022-11-04T13:11:19;14.20;99.90
7572;DHT22;3827;49.928;8.548;2022-11-04T13:13:58;14.00;99.90
7572;DHT22;3827;49.928;8.548;2022-11-04T13:16:30;14.40;99.90
7572;DHT22;3827;49.928;8.548;2022-11-04T13:19:00;14.60;99.90
7572;DHT22;3827;49.928;8.548;2022-11-04T13:21:31;14.50;99.90
7572;DHT22;3827;49.928;8.548;2022-11-04T13:24:03;14.20;99.90
7572;DHT22;3827;49.928;8.548;2022-11-04T13:26:31;14.30;99.90
7572;DHT22;3827;49.928;8.548;2022-11-04T13:29:02;14.40;99.90
7572;DHT22;3827;49.928;8.548;2022-11-04T13:31:35;14.60;99.90
7572;DHT22;3827;49.928;8.548;2022-11-04T13:34:10;14.70;99.90
7572;DHT22;3827;49.928;8.548;2022-11-04T13:36:42;15.10;99.90
7572;DHT22;3827;49.928;8.548;2022-11-04T13:39:17;15.40;99.90
7572;DHT22;3827;49.928;8.548;2022-11-04T13:42:18;15.30;99.90
7572;DHT22;3827;49.928;8.548;2022-11-04T13:44:49;15.20;99.90
7572;DHT22;3827;49.928;8.548;2022-11-04T13:47:20;15.00;99.90
7572;DHT22;3827;49.928;8.548;2022-11-04T13:49:51;15.00;99.90
7572;DHT22;3827;49.928;8.548;2022-11-04T13:52:19;14.80;99.90
7572;DHT22;3827;49.928;8.548;2022-11-04T13:54:52;14.50;99.90
7572;DHT22;3827;49.928;8.548;2022-11-04T13:57:21;14.30;99.90
7572;DHT22;3827;49.928;8.548;2022-11-04T14:00:18;14.00;99.90
7572;DHT22;3827;49.928;8.548;2022-11-04T14:02:45;13.60;99.90
7572;DHT22;3827;49.928;8.548;2022-11-04T14:08:21;13.70;99.90
7572;DHT22;3827;49.928;8.548;2022-11-04T14:11:12;13.60;99.90
7572;DHT22;3827;49.928;8.548;2022-11-04T14:14:02;13.50;99.90
7572;DHT22;3827;49.928;8.548;2022-11-04T14:16:53;13.50;99.90
7572;DHT22;3827;49.928;8.548;2022-11-04T14:19:57;13.40;99.90
7572;DHT22;3827;49.928;8.548;2022-11-04T14:22:47;13.20;99.90
7572;DHT22;3827;49.928;8.548;2022-11-04T14:25:21;13.10;99.90
7572;DHT22;3827;49.928;8.548;2022-11-04T14:27:52;13.10;99.90
7572;DHT22;3827;49.928;8.548;2022-11-04T14:30:41;13.10;99.90
7572;DHT22;3827;49.928;8.548;2022-11-04T14:33:21;12.90;99.90
7572;DHT22;3827;49.928;8.548;2022-11-04T14:35:49;12.90;99.90
7572;DHT22;3827;49.928;8.548;2022-11-04T14:38:24;12.80;99.90
7572;DHT22;3827;49.928;8.548;2022-11-04T14:41:13;12.80;99.90
7572;DHT22;3827;49.928;8.548;2022-11-04T14:43:44;12.80;99.90
7572;DHT22;3827;49.928;8.548;2022-11-04T14:46:17;12.90;99.90
7572;DHT22;3827;49.928;8.548;2022-11-04T14:48:48;12.70;99.90
7572;DHT22;3827;49.928;8.548;2022-11-04T14:51:23;12.60;99.90
7572;DHT22;3827;49.928;8.548;2022-11-04T14:53:51;12.50;99.90
7572;DHT22;3827;49.928;8.548;2022-11-04T14:56:21;12.30;99.90
7572;DHT22;3827;49.928;8.548;2022-11-04T14:58:55;12.20;99.90
7572;DHT22;3827;49.928;8.548;2022-11-04T15:01:23;12.20;99.90
7572;DHT22;3827;49.928;8.548;2022-11-04T15:03:51;12.10;99.90
7572;DHT22;3827;49.928;8.548;2022-11-04T15:06:23;12.10;99.90
7572;DHT22;3827;49.928;8.548;2022-11-04T15:08:51;11.90;99.90
7572;DHT22;3827;49.928;8.548;2022-11-04T15:11:20;11.80;99.90
7572;DHT22;3827;49.928;8.548;2022-11-04T15:14:16;11.70;99.90
7572;DHT22;3827;49.928;8.548;2022-11-04T15:16:47;11.60;99.90
7572;DHT22;3827;49.928;8.548;2022-11-04T15:19:20;11.50;99.90
7572;DHT22;3827;49.928;8.548;2022-11-04T15:21:49;11.60;99.90
7572;DHT22;3827;49.928;8.548;2022-11-04T15:24:16;11.50;99.90
7572;DHT22;3827;49.928;8.548;2022-11-04T15:26:48;11.50;99.90
7572;DHT22;3827;49.928;8.548;2022-11-04T15:29:19;11.50;99.90
7572;DHT22;3827;49.928;8.548;2022-11-04T15:31:52;11.40;99.90
7572;DHT22;3827;49.928;8.548;2022-11-04T15:34:20;11.30;99.90
7572;DHT22;3827;49.928;8.548;2022-11-04T15:36:48;11.30;99.90
7572;DHT22;3827;49.928;8.548;2022-11-04T15:39:18;11.00;99.90
7572;DHT22;3827;49.928;8.548;2022-11-04T15:41:47;10.90;99.90
7572;DHT22;3827;49.928;8.548;2022-11-04T15:44:35;10.80;99.90
7572;DHT22;3827;49.928;8.548;2022-11-04T15:47:18;10.70;99.90
7572;DHT22;3827;49.928;8.548;2022-11-04T15:49:47;10.70;99.90
7572;DHT22;3827;49.928;8.548;2022-11-04T15:52:17;10.60;99.90
7572;DHT22;3827;49.928;8.548;2022-11-04T15:54:47;10.60;99.90
7572;DHT22;3827;49.928;8.548;2022-11-04T15:57:17;10.60;99.90
7572;DHT22;3827;49.928;8.548;2022-11-04T15:59:49;10.60;99.90
7572;DHT22;3827;49.928;8.548;2022-11-04T16:02:23;10.60;99.90
7572;DHT22;3827;49.928;8.548;2022-11-04T16:05:24;10.50;99.90
7572;DHT22;3827;49.928;8.548;2022-11-04T16:07:53;10.50;99.90
7572;DHT22;3827;49.928;8.548;2022-11-04T16:10:27;10.50;99.90
7572;DHT22;3827;49.928;8.548;2022-11-04T16:12:57;10.40;99.90
7572;DHT22;3827;49.928;8.548;2022-11-04T16:15:33;10.40;99.90
7572;DHT22;3827;49.928;8.548;2022-11-04T16:18:02;10.30;99.90
7572;DHT22;3827;49.928;8.548;2022-11-04T16:20:30;10.30;99.90
7572;DHT22;3827;49.928;8.548;2022-11-04T16:22:59;10.30;99.90
7572;DHT22;3827;49.928;8.548;2022-11-04T16:25:29;10.30;99.90
7572;DHT22;3827;49.928;8.548;2022-11-04T16:27:58;10.20;99.90
7572;DHT22;3827;49.928;8.548;2022-11-04T16:30:25;10.20;99.90
7572;DHT22;3827;49.928;8.548;2022-11-04T16:32:55;10.20;99.90
7572;DHT22;3827;49.928;8.548;2022-11-04T16:35:34;10.20;99.90
7572;DHT22;3827;49.928;8.548;2022-11-04T16:38:06;10.20;99.90
7572;DHT22;3827;49.928;8.548;2022-11-04T16:40:33;10.20;99.90
7572;DHT22;3827;49.928;8.548;2022-11-04T16:43:00;10.20;99.90
7572;DHT22;3827;49.928;8.548;2022-11-04T16:45:30;10.20;99.90